createdAt,value
2018-03-22T00:00:17.402Z,60.03
2018-03-22T00:01:20.768Z,60.03
2018-03-22T00:02:24.163Z,60.01
2018-03-22T00:03:27.578Z,59.99
2018-03-22T00:04:30.902Z,59.98
2018-03-22T00:05:34.258Z,60.00
2018-03-22T00:06:37.660Z,60.00
2018-03-22T00:07:41.038Z,59.99
2018-03-22T00:08:44.392Z,60.00
2018-03-22T00:09:47.708Z,60.01
2018-03-22T00:10:51.094Z,60.00
2018-03-22T00:11:54.441Z,60.00
2018-03-22T00:12:57.781Z,60.00
2018-03-22T00:14:01.163Z,60.00
2018-03-22T00:15:04.477Z,60.01
2018-03-22T00:16:07.816Z,60.01
2018-03-22T00:17:11.163Z,60.01
2018-03-22T00:18:14.571Z,59.98
2018-03-22T00:19:18.118Z,59.99
2018-03-22T00:20:21.451Z,60.00
2018-03-22T00:21:24.793Z,59.98
2018-03-22T00:22:38.960Z,59.99
2018-03-22T00:23:42.317Z,60.06
2018-03-22T00:24:45.722Z,60.06
2018-03-22T00:25:49.047Z,60.05
2018-03-22T00:26:53.072Z,60.04
2018-03-22T00:27:56.445Z,60.05
2018-03-22T00:28:59.820Z,60.06
2018-03-22T00:30:03.237Z,60.04
2018-03-22T00:31:06.730Z,60.04
2018-03-22T00:32:10.062Z,60.03
2018-03-22T00:33:13.410Z,60.03
2018-03-22T00:34:16.743Z,60.04
2018-03-22T00:35:20.068Z,60.06
2018-03-22T00:36:23.390Z,60.07
2018-03-22T00:37:26.843Z,60.04
2018-03-22T00:38:30.196Z,60.02
2018-03-22T00:39:33.543Z,60.01
2018-03-22T00:40:36.884Z,60.01
2018-03-22T00:41:41.161Z,60.02
2018-03-22T00:42:44.458Z,60.04
2018-03-22T00:43:47.798Z,60.04
2018-03-22T00:44:51.192Z,60.05
2018-03-22T00:45:54.566Z,60.05
2018-03-22T00:46:57.864Z,60.04
2018-03-22T00:48:01.183Z,60.05
2018-03-22T00:49:04.624Z,60.04
2018-03-22T00:50:08.019Z,60.03
2018-03-22T00:51:11.394Z,60.03
2018-03-22T00:52:14.702Z,60.05
2018-03-22T00:53:18.024Z,60.05
2018-03-22T00:54:21.373Z,60.06
2018-03-22T00:55:24.761Z,60.07
2018-03-22T00:56:28.089Z,60.07
2018-03-22T00:57:31.520Z,60.08
2018-03-22T00:58:34.821Z,60.09
2018-03-22T00:59:38.151Z,60.10
2018-03-22T01:00:41.510Z,60.13
2018-03-22T01:01:45.575Z,60.13
2018-03-22T01:02:48.932Z,60.13
2018-03-22T01:03:52.292Z,60.13
2018-03-22T01:04:55.667Z,60.13
2018-03-22T01:05:59.053Z,60.11
2018-03-22T01:07:02.455Z,60.10
2018-03-22T01:08:05.791Z,60.10
2018-03-22T01:09:09.140Z,60.09
2018-03-22T01:10:12.489Z,60.07
2018-03-22T01:11:15.873Z,60.06
2018-03-22T01:12:19.306Z,60.03
2018-03-22T01:13:22.632Z,60.01
2018-03-22T01:14:26.086Z,59.99
2018-03-22T01:15:29.376Z,59.96
2018-03-22T01:16:32.762Z,59.93
2018-03-22T01:17:36.048Z,59.88
2018-03-22T01:18:39.388Z,59.88
2018-03-22T01:19:42.710Z,59.88
2018-03-22T01:20:46.086Z,59.84
2018-03-22T01:21:49.790Z,59.82
2018-03-22T01:22:53.141Z,59.77
2018-03-22T01:23:56.568Z,59.69
2018-03-22T01:24:59.947Z,59.68
2018-03-22T01:26:03.341Z,59.62
2018-03-22T01:27:06.691Z,59.56
2018-03-22T01:28:10.281Z,59.53
2018-03-22T01:29:13.677Z,59.47
2018-03-22T01:30:28.844Z,59.44
2018-03-22T01:31:32.194Z,59.46
2018-03-22T01:32:35.613Z,59.42
2018-03-22T01:33:38.915Z,59.42
2018-03-22T01:34:42.238Z,59.40
2018-03-22T01:35:45.552Z,59.40
2018-03-22T01:36:48.989Z,59.38
2018-03-22T01:37:52.336Z,59.38
2018-03-22T01:38:55.755Z,59.38
2018-03-22T01:39:59.064Z,59.35
2018-03-22T01:41:02.387Z,59.30
2018-03-22T01:42:07.309Z,59.29
2018-03-22T01:43:10.729Z,59.29
2018-03-22T01:44:14.095Z,59.24
2018-03-22T01:45:17.466Z,59.19
2018-03-22T01:46:20.746Z,59.19
2018-03-22T01:47:24.090Z,59.17
2018-03-22T01:48:27.427Z,59.18
2018-03-22T01:49:30.765Z,59.17
2018-03-22T01:50:34.088Z,59.15
2018-03-22T01:51:37.414Z,59.11
2018-03-22T01:52:52.413Z,59.10
2018-03-22T01:53:55.767Z,59.17
2018-03-22T01:54:59.201Z,59.16
2018-03-22T01:56:02.525Z,59.14
2018-03-22T01:57:05.839Z,59.12
2018-03-22T01:58:09.145Z,59.09
2018-03-22T01:59:13.528Z,59.10
2018-03-22T02:00:16.840Z,59.08
2018-03-22T02:01:20.159Z,59.06
2018-03-22T02:02:23.469Z,59.05
2018-03-22T02:03:26.807Z,59.04
2018-03-22T02:04:30.159Z,59.02
2018-03-22T02:05:33.507Z,59.00
2018-03-22T02:06:36.831Z,58.98
2018-03-22T02:07:40.178Z,58.96
2018-03-22T02:08:43.564Z,58.95
2018-03-22T02:09:47.005Z,58.97
2018-03-22T02:10:50.300Z,58.94
2018-03-22T02:11:53.645Z,58.94
2018-03-22T02:12:57.003Z,58.94
2018-03-22T02:14:00.356Z,58.92
2018-03-22T02:15:03.845Z,58.89
2018-03-22T02:16:07.175Z,58.86
2018-03-22T02:17:10.525Z,58.87
2018-03-22T02:18:13.934Z,58.88
2018-03-22T02:19:18.055Z,58.86
2018-03-22T02:20:21.375Z,58.85
2018-03-22T02:21:24.828Z,58.85
2018-03-22T02:22:28.161Z,58.86
2018-03-22T02:23:31.456Z,58.85
2018-03-22T02:24:34.832Z,58.88
2018-03-22T02:25:38.144Z,58.91
2018-03-22T02:26:41.465Z,58.97
2018-03-22T02:27:44.924Z,58.99
2018-03-22T02:28:48.324Z,59.06
2018-03-22T02:29:51.651Z,59.13
2018-03-22T02:30:55.137Z,59.12
2018-03-22T02:31:58.469Z,59.16
2018-03-22T02:33:01.835Z,59.23
2018-03-22T02:34:05.186Z,59.26
2018-03-22T02:35:08.508Z,59.30
2018-03-22T02:36:11.910Z,59.35
2018-03-22T02:37:15.254Z,59.39
2018-03-22T02:38:18.651Z,59.41
2018-03-22T02:39:21.992Z,59.43
2018-03-22T02:40:25.451Z,59.45
2018-03-22T02:41:28.843Z,59.48
2018-03-22T02:42:33.495Z,59.48
2018-03-22T02:43:36.897Z,59.49
2018-03-22T02:44:40.240Z,59.52
2018-03-22T02:45:43.557Z,59.62
2018-03-22T02:46:46.961Z,59.66
2018-03-22T02:47:50.370Z,59.69
2018-03-22T02:48:53.679Z,59.73
2018-03-22T02:49:57.146Z,59.82
2018-03-22T02:51:00.493Z,59.88
2018-03-22T02:52:03.936Z,59.93
2018-03-22T02:53:07.257Z,59.96
2018-03-22T02:54:10.565Z,60.00
2018-03-22T02:55:13.887Z,60.04
2018-03-22T02:56:17.290Z,60.08
2018-03-22T02:57:20.621Z,60.10
2018-03-22T02:58:23.938Z,60.15
2018-03-22T02:59:27.289Z,60.15
2018-03-22T03:00:30.657Z,60.18
2018-03-22T03:01:33.952Z,60.23
2018-03-22T03:02:37.311Z,60.28
2018-03-22T03:03:40.636Z,60.33
2018-03-22T03:04:44.255Z,60.39
2018-03-22T03:05:47.663Z,60.43
2018-03-22T03:06:51.050Z,60.44
2018-03-22T03:07:54.399Z,60.47
2018-03-22T03:08:57.820Z,60.52
2018-03-22T03:10:01.147Z,60.54
2018-03-22T03:11:04.483Z,60.56
2018-03-22T03:12:07.819Z,60.57
2018-03-22T03:13:11.174Z,60.60
2018-03-22T03:14:14.504Z,60.63
2018-03-22T03:15:17.824Z,60.68
2018-03-22T03:16:21.162Z,60.74
2018-03-22T03:17:24.541Z,60.78
2018-03-22T03:18:27.970Z,60.81
2018-03-22T03:19:31.592Z,60.85
2018-03-22T03:20:35.064Z,60.88
2018-03-22T03:21:38.400Z,60.91
2018-03-22T03:22:41.713Z,60.95
2018-03-22T03:23:45.114Z,60.98
2018-03-22T03:24:48.430Z,60.99
2018-03-22T03:25:52.493Z,61.01
2018-03-22T03:26:55.815Z,61.06
2018-03-22T03:27:59.172Z,61.10
2018-03-22T03:29:03.326Z,61.13
2018-03-22T03:30:06.679Z,61.19
2018-03-22T03:31:10.012Z,61.22
2018-03-22T03:32:13.364Z,61.26
2018-03-22T03:33:16.684Z,61.30
2018-03-22T03:34:20.056Z,61.35
2018-03-22T03:35:23.378Z,61.39
2018-03-22T03:36:26.753Z,61.41
2018-03-22T03:37:30.129Z,61.47
2018-03-22T03:38:33.674Z,61.52
2018-03-22T03:39:37.033Z,61.58
2018-03-22T03:40:40.373Z,61.63
2018-03-22T03:41:43.711Z,61.67
2018-03-22T03:42:48.574Z,61.74
2018-03-22T03:43:52.287Z,61.83
2018-03-22T03:44:55.755Z,61.89
2018-03-22T03:45:59.095Z,61.94
2018-03-22T03:47:02.440Z,61.99
2018-03-22T03:48:05.819Z,62.07
2018-03-22T03:49:09.176Z,62.14
2018-03-22T03:50:12.537Z,62.22
2018-03-22T03:51:15.869Z,62.32
2018-03-22T03:52:19.194Z,62.40
2018-03-22T03:53:22.515Z,62.48
2018-03-22T03:54:25.824Z,62.53
2018-03-22T03:55:29.184Z,62.60
2018-03-22T03:56:32.520Z,62.68
2018-03-22T03:57:35.914Z,62.75
2018-03-22T03:58:39.228Z,62.84
2018-03-22T03:59:42.643Z,62.94
2018-03-22T04:00:46.048Z,62.96
2018-03-22T04:01:49.356Z,63.00
2018-03-22T04:02:52.760Z,63.06
2018-03-22T04:03:56.075Z,63.13
2018-03-22T04:04:59.405Z,63.19
2018-03-22T04:06:02.854Z,63.25
2018-03-22T04:07:06.224Z,63.30
2018-03-22T04:08:10.276Z,63.39
2018-03-22T04:09:13.636Z,63.46
2018-03-22T04:10:16.974Z,63.53
2018-03-22T04:11:20.096Z,63.59
2018-03-22T04:12:23.177Z,63.64
2018-03-22T04:13:26.396Z,63.70
2018-03-22T04:14:29.421Z,63.75
2018-03-22T04:15:32.493Z,63.86
2018-03-22T04:16:35.572Z,63.93
2018-03-22T04:17:38.695Z,63.97
2018-03-22T04:18:41.767Z,63.99
2018-03-22T04:19:44.875Z,64.02
2018-03-22T04:20:48.009Z,64.05
2018-03-22T04:21:51.058Z,64.07
2018-03-22T04:22:54.130Z,64.10
2018-03-22T04:23:57.184Z,64.13
2018-03-22T04:25:00.362Z,64.15
2018-03-22T04:26:03.405Z,64.15
2018-03-22T04:27:06.457Z,64.18
2018-03-22T04:28:09.492Z,64.18
2018-03-22T04:29:12.536Z,64.17
2018-03-22T04:30:15.601Z,64.18
2018-03-22T04:31:18.684Z,64.19
2018-03-22T04:32:21.741Z,64.21
2018-03-22T04:33:24.786Z,64.21
2018-03-22T04:34:27.829Z,64.20
2018-03-22T04:35:30.864Z,64.20
2018-03-22T04:36:33.921Z,64.20
2018-03-22T04:37:36.981Z,64.22
2018-03-22T04:38:40.058Z,64.22
2018-03-22T04:39:43.120Z,64.24
2018-03-22T04:40:47.337Z,64.23
2018-03-22T04:41:50.409Z,64.26
2018-03-22T04:42:54.648Z,64.31
2018-03-22T04:43:57.717Z,64.36
2018-03-22T04:45:00.757Z,64.45
2018-03-22T04:46:03.861Z,64.46
2018-03-22T04:47:11.407Z,64.51
2018-03-22T04:48:14.568Z,64.56
2018-03-22T04:49:17.629Z,64.57
2018-03-22T04:50:20.680Z,64.61
2018-03-22T04:51:24.824Z,64.65
2018-03-22T04:52:27.929Z,64.68
2018-03-22T04:53:31.051Z,64.73
2018-03-22T04:54:35.523Z,64.76
2018-03-22T04:55:38.598Z,64.78
2018-03-22T04:56:41.721Z,64.82
2018-03-22T04:57:44.880Z,64.85
2018-03-22T04:58:49.551Z,64.88
2018-03-22T04:59:52.624Z,64.88
2018-03-22T05:00:57.112Z,64.91
2018-03-22T05:02:00.476Z,64.94
2018-03-22T05:03:03.595Z,64.95
2018-03-22T05:04:06.724Z,64.96
2018-03-22T05:05:09.771Z,65.01
2018-03-22T05:06:12.885Z,65.04
2018-03-22T05:07:15.955Z,65.05
2018-03-22T05:08:19.008Z,65.07
2018-03-22T05:09:22.157Z,65.08
2018-03-22T05:10:25.212Z,65.08
2018-03-22T05:11:28.364Z,65.08
2018-03-22T05:12:31.679Z,65.08
2018-03-22T05:13:34.798Z,65.11
2018-03-22T05:14:37.915Z,65.12
2018-03-22T05:15:41.004Z,65.17
2018-03-22T05:16:44.053Z,65.18
2018-03-22T05:17:47.128Z,65.18
2018-03-22T05:18:50.158Z,65.22
2018-03-22T05:19:53.307Z,65.22
2018-03-22T05:20:57.195Z,65.23
2018-03-22T05:22:00.296Z,65.25
2018-03-22T05:23:03.357Z,65.29
2018-03-22T05:24:06.431Z,65.32
2018-03-22T05:25:09.508Z,65.33
2018-03-22T05:26:12.619Z,65.33
2018-03-22T05:27:15.782Z,65.37
2018-03-22T05:28:18.820Z,65.40
2018-03-22T05:29:21.943Z,65.46
2018-03-22T05:30:25.065Z,65.48
2018-03-22T05:31:28.149Z,65.52
2018-03-22T05:32:31.182Z,65.59
2018-03-22T05:33:34.217Z,65.67
2018-03-22T05:34:37.252Z,65.78
2018-03-22T05:35:40.328Z,65.87
2018-03-22T05:36:43.364Z,65.93
2018-03-22T05:37:46.404Z,66.01
2018-03-22T05:38:49.551Z,66.07
2018-03-22T05:39:52.660Z,66.16
2018-03-22T05:40:55.713Z,66.23
2018-03-22T05:41:58.862Z,66.32
2018-03-22T05:43:03.681Z,66.37
2018-03-22T05:44:06.738Z,66.48
2018-03-22T05:45:09.796Z,66.54
2018-03-22T05:46:13.019Z,66.62
2018-03-22T05:47:16.052Z,66.75
2018-03-22T05:48:19.084Z,66.78
2018-03-22T05:49:22.284Z,66.84
2018-03-22T05:50:25.379Z,66.94
2018-03-22T05:51:28.494Z,67.01
2018-03-22T05:52:31.549Z,67.07
2018-03-22T05:53:36.643Z,67.17
2018-03-22T05:54:39.692Z,67.20
2018-03-22T05:55:42.751Z,67.31
2018-03-22T05:56:45.867Z,67.33
2018-03-22T05:57:48.978Z,67.35
2018-03-22T05:58:52.095Z,67.56
2018-03-22T05:59:55.249Z,67.69
2018-03-22T06:00:58.293Z,67.79
2018-03-22T06:02:02.574Z,67.87
2018-03-22T06:03:05.695Z,67.94
2018-03-22T06:04:08.695Z,67.98
2018-03-22T06:05:11.765Z,68.06
2018-03-22T06:06:14.840Z,68.08
2018-03-22T06:07:17.955Z,68.16
2018-03-22T06:08:21.063Z,68.25
2018-03-22T06:09:24.116Z,68.33
2018-03-22T06:10:27.138Z,68.41
2018-03-22T06:11:30.268Z,68.50
2018-03-22T06:12:33.358Z,68.55
2018-03-22T06:13:36.434Z,68.56
2018-03-22T06:14:39.521Z,68.58
2018-03-22T06:15:42.642Z,68.65
2018-03-22T06:16:45.682Z,68.71
2018-03-22T06:17:48.761Z,68.74
2018-03-22T06:18:51.826Z,68.77
2018-03-22T06:19:54.873Z,68.79
2018-03-22T06:20:57.946Z,68.85
2018-03-22T06:22:01.095Z,68.87
2018-03-22T06:23:04.151Z,68.97
2018-03-22T06:24:07.304Z,69.07
2018-03-22T06:25:11.636Z,69.12
2018-03-22T06:26:14.767Z,69.18
2018-03-22T06:27:17.808Z,69.27
2018-03-22T06:28:20.865Z,69.28
2018-03-22T06:29:24.063Z,69.26
2018-03-22T06:30:27.172Z,69.25
2018-03-22T06:31:30.286Z,69.29
2018-03-22T06:32:33.405Z,69.31
2018-03-22T06:33:36.501Z,69.37
2018-03-22T06:34:39.546Z,69.47
2018-03-22T06:35:42.752Z,69.51
2018-03-22T06:36:45.801Z,69.58
2018-03-22T06:37:48.828Z,69.64
2018-03-22T06:38:51.880Z,69.67
2018-03-22T06:39:55.151Z,69.71
2018-03-22T06:40:58.264Z,69.74
2018-03-22T06:42:01.396Z,69.80
2018-03-22T06:43:06.204Z,69.90
2018-03-22T06:44:09.301Z,69.98
2018-03-22T06:45:12.341Z,70.02
2018-03-22T06:46:15.567Z,70.10
2018-03-22T06:47:18.611Z,70.21
2018-03-22T06:48:21.685Z,70.29
2018-03-22T06:49:24.941Z,70.36
2018-03-22T06:50:28.053Z,70.44
2018-03-22T06:51:31.345Z,70.50
2018-03-22T06:52:34.585Z,70.58
2018-03-22T06:53:37.639Z,70.64
2018-03-22T06:54:40.912Z,70.69
2018-03-22T06:55:43.946Z,70.74
2018-03-22T06:56:47.216Z,70.81
2018-03-22T06:57:50.377Z,70.87
2018-03-22T06:58:53.464Z,70.91
2018-03-22T06:59:56.783Z,70.97
2018-03-22T07:00:59.853Z,71.08
2018-03-22T07:02:02.886Z,71.17
2018-03-22T07:03:06.195Z,71.26
2018-03-22T07:04:09.261Z,71.33
2018-03-22T07:05:13.276Z,71.37
2018-03-22T07:06:16.412Z,71.41
2018-03-22T07:07:19.596Z,71.45
2018-03-22T07:08:22.821Z,71.50
2018-03-22T07:09:25.919Z,71.55
2018-03-22T07:10:29.084Z,71.63
2018-03-22T07:11:32.189Z,71.68
2018-03-22T07:12:35.356Z,71.75
2018-03-22T07:13:38.532Z,71.82
2018-03-22T07:14:42.069Z,71.90
2018-03-22T07:15:45.291Z,71.96
2018-03-22T07:16:48.338Z,72.04
2018-03-22T07:17:51.409Z,72.11
2018-03-22T07:18:54.547Z,72.16
2018-03-22T07:19:57.656Z,72.24
2018-03-22T07:21:00.790Z,72.29
2018-03-22T07:22:03.819Z,72.31
2018-03-22T07:23:07.175Z,72.36
2018-03-22T07:24:10.300Z,72.44
2018-03-22T07:25:13.420Z,72.48
2018-03-22T07:26:16.600Z,72.53
2018-03-22T07:27:20.444Z,72.57
2018-03-22T07:28:24.416Z,72.58
2018-03-22T07:29:27.457Z,72.58
2018-03-22T07:30:31.159Z,72.58
2018-03-22T07:31:34.311Z,72.62
2018-03-22T07:32:37.584Z,72.67
2018-03-22T07:33:40.862Z,72.72
2018-03-22T07:34:43.910Z,72.77
2018-03-22T07:35:46.966Z,72.84
2018-03-22T07:36:50.176Z,72.88
2018-03-22T07:37:53.186Z,72.92
2018-03-22T07:38:56.310Z,72.96
2018-03-22T07:39:59.420Z,72.99
2018-03-22T07:41:03.255Z,73.02
2018-03-22T07:42:06.408Z,73.04
2018-03-22T07:43:18.207Z,73.05
2018-03-22T07:44:26.736Z,73.10
2018-03-22T07:45:29.823Z,73.10
2018-03-22T07:46:32.939Z,73.12
2018-03-22T07:47:36.029Z,73.08
2018-03-22T07:48:39.080Z,73.08
2018-03-22T07:49:43.792Z,73.09
2018-03-22T07:50:46.867Z,73.08
2018-03-22T07:51:49.975Z,73.05
2018-03-22T07:52:53.044Z,73.03
2018-03-22T07:53:56.280Z,73.09
2018-03-22T07:54:59.412Z,73.16
2018-03-22T07:56:02.473Z,73.15
2018-03-22T07:57:05.508Z,73.14
2018-03-22T07:58:08.652Z,73.14
2018-03-22T07:59:12.598Z,73.12
2018-03-22T08:00:16.188Z,73.12
2018-03-22T08:01:19.503Z,73.10
2018-03-22T08:02:22.848Z,73.07
2018-03-22T08:03:26.288Z,73.06
2018-03-22T08:04:30.729Z,73.05
2018-03-22T08:05:35.195Z,73.08
2018-03-22T08:06:39.478Z,73.12
2018-03-22T08:07:43.750Z,73.13
2018-03-22T08:08:47.243Z,73.14
2018-03-22T08:09:50.617Z,73.12
2018-03-22T08:10:53.970Z,73.15
2018-03-22T08:11:57.358Z,73.16
2018-03-22T08:13:00.712Z,73.13
2018-03-22T08:14:04.093Z,73.09
2018-03-22T08:15:07.833Z,73.06
2018-03-22T08:16:11.282Z,73.06
2018-03-22T08:17:14.596Z,73.07
2018-03-22T08:18:17.920Z,73.10
2018-03-22T08:19:21.308Z,73.08
2018-03-22T08:20:25.332Z,73.08
2018-03-22T08:21:28.653Z,73.05
2018-03-22T08:22:31.976Z,73.07
2018-03-22T08:23:35.306Z,73.11
2018-03-22T08:24:38.721Z,73.13
2018-03-22T08:25:42.059Z,73.15
2018-03-22T08:26:45.379Z,73.17
2018-03-22T08:27:48.725Z,73.15
2018-03-22T08:28:52.151Z,73.19
2018-03-22T08:29:58.798Z,73.18
2018-03-22T08:31:02.249Z,73.22
2018-03-22T08:32:05.715Z,73.28
2018-03-22T08:33:09.207Z,73.25
2018-03-22T08:34:12.675Z,73.31
2018-03-22T08:35:16.016Z,73.36
2018-03-22T08:36:19.448Z,73.39
2018-03-22T08:37:22.823Z,73.36
2018-03-22T08:38:26.185Z,73.35
2018-03-22T08:39:29.603Z,73.37
2018-03-22T08:40:33.017Z,73.33
2018-03-22T08:41:36.342Z,73.28
2018-03-22T08:42:39.702Z,73.24
2018-03-22T08:43:43.868Z,73.20
2018-03-22T08:44:47.306Z,73.18
2018-03-22T08:45:50.671Z,73.20
2018-03-22T08:46:54.158Z,73.21
2018-03-22T08:47:57.552Z,73.22
2018-03-22T08:49:00.939Z,73.23
2018-03-22T08:50:04.364Z,73.25
2018-03-22T08:51:07.713Z,73.29
2018-03-22T08:52:11.549Z,73.33
2018-03-22T08:53:15.840Z,73.36
2018-03-22T08:54:19.777Z,73.39
2018-03-22T08:55:24.264Z,73.40
2018-03-22T08:56:28.401Z,73.38
2018-03-22T08:57:32.247Z,73.41
2018-03-22T08:58:35.597Z,73.39
2018-03-22T08:59:40.062Z,73.39
2018-03-22T09:00:43.422Z,73.34
2018-03-22T09:01:46.835Z,73.33
2018-03-22T09:02:50.187Z,73.30
2018-03-22T09:03:53.731Z,73.24
2018-03-22T09:04:57.051Z,73.21
2018-03-22T09:06:00.378Z,73.21
2018-03-22T09:07:04.503Z,73.19
2018-03-22T09:08:07.913Z,73.18
2018-03-22T09:09:11.357Z,73.19
2018-03-22T09:10:14.664Z,73.15
2018-03-22T09:11:17.997Z,73.12
2018-03-22T09:12:21.446Z,73.11
2018-03-22T09:13:24.824Z,73.11
2018-03-22T09:14:28.392Z,73.14
2018-03-22T09:15:32.776Z,73.14
2018-03-22T09:16:36.110Z,73.15
2018-03-22T09:17:40.609Z,73.15
2018-03-22T09:18:44.776Z,73.17
2018-03-22T09:19:48.088Z,73.21
2018-03-22T09:20:51.889Z,73.19
2018-03-22T09:21:55.325Z,73.19
2018-03-22T09:22:58.677Z,73.21
2018-03-22T09:24:02.140Z,73.21
2018-03-22T09:25:05.572Z,73.21
2018-03-22T09:26:09.025Z,73.22
2018-03-22T09:27:12.869Z,73.24
2018-03-22T09:28:16.313Z,73.26
2018-03-22T09:29:19.697Z,73.28
2018-03-22T09:30:23.148Z,73.29
2018-03-22T09:31:26.484Z,73.26
2018-03-22T09:32:29.852Z,73.30
2018-03-22T09:33:33.215Z,73.33
2018-03-22T09:34:36.556Z,73.34
2018-03-22T09:35:39.904Z,73.35
2018-03-22T09:36:43.235Z,73.37
2018-03-22T09:37:46.656Z,73.40
2018-03-22T09:38:50.044Z,73.46
2018-03-22T09:39:53.486Z,73.52
2018-03-22T09:40:56.833Z,73.57
2018-03-22T09:42:00.183Z,73.63
2018-03-22T09:43:03.522Z,73.69
2018-03-22T09:44:06.863Z,73.73
2018-03-22T09:45:10.418Z,73.75
2018-03-22T09:46:13.769Z,73.77
2018-03-22T09:47:17.220Z,73.83
2018-03-22T09:48:20.560Z,73.87
2018-03-22T09:49:23.908Z,73.91
2018-03-22T09:50:27.225Z,73.94
2018-03-22T09:51:30.548Z,73.96
2018-03-22T09:52:33.874Z,73.99
2018-03-22T09:53:37.208Z,73.99
2018-03-22T09:54:40.578Z,74.00
2018-03-22T09:55:43.936Z,74.02
2018-03-22T09:56:47.393Z,74.06
2018-03-22T09:57:50.771Z,74.14
2018-03-22T09:58:54.080Z,74.12
2018-03-22T09:59:57.453Z,74.13
2018-03-22T10:01:00.820Z,74.20
2018-03-22T10:02:04.232Z,74.21
2018-03-22T10:03:07.535Z,74.25
2018-03-22T10:04:11.795Z,74.28
2018-03-22T10:05:15.224Z,74.28
2018-03-22T10:06:18.592Z,74.29
2018-03-22T10:07:21.948Z,74.33
2018-03-22T10:08:25.300Z,74.34
2018-03-22T10:09:28.671Z,74.37
2018-03-22T10:10:32.007Z,74.37
2018-03-22T10:11:35.347Z,74.38
2018-03-22T10:12:39.763Z,74.39
2018-03-22T10:13:43.101Z,74.43
2018-03-22T10:14:46.429Z,74.43
2018-03-22T10:15:49.845Z,74.48
2018-03-22T10:16:53.212Z,74.51
2018-03-22T10:17:56.607Z,74.51
2018-03-22T10:18:59.955Z,74.54
2018-03-22T10:20:03.424Z,74.55
2018-03-22T10:21:06.755Z,74.57
2018-03-22T10:22:10.656Z,74.57
2018-03-22T10:23:14.056Z,74.55
2018-03-22T10:24:17.371Z,74.53
2018-03-22T10:25:20.788Z,74.53
2018-03-22T10:26:24.187Z,74.50
2018-03-22T10:27:27.530Z,74.50
2018-03-22T10:28:30.859Z,74.48
2018-03-22T10:29:34.197Z,74.49
2018-03-22T10:30:37.551Z,74.51
2018-03-22T10:31:40.919Z,74.53
2018-03-22T10:32:44.958Z,74.57
2018-03-22T10:33:48.318Z,74.61
2018-03-22T10:34:51.703Z,74.64
2018-03-22T10:35:55.153Z,74.66
2018-03-22T10:36:58.442Z,74.68
2018-03-22T10:38:02.710Z,74.68
2018-03-22T10:39:06.059Z,74.68
2018-03-22T10:40:09.392Z,74.67
2018-03-22T10:41:12.880Z,74.67
2018-03-22T10:42:16.225Z,74.70
2018-03-22T10:43:19.648Z,74.71
2018-03-22T10:44:24.237Z,74.73
2018-03-22T10:45:27.601Z,74.75
2018-03-22T10:46:31.014Z,74.77
2018-03-22T10:47:34.385Z,74.78
2018-03-22T10:48:38.296Z,74.80
2018-03-22T10:49:41.686Z,74.82
2018-03-22T10:50:45.096Z,74.82
2018-03-22T10:51:48.410Z,74.84
2018-03-22T10:52:52.616Z,74.86
2018-03-22T10:53:56.049Z,74.89
2018-03-22T10:55:00.037Z,74.88
2018-03-22T10:56:03.361Z,74.89
2018-03-22T10:57:07.027Z,74.86
2018-03-22T10:58:10.433Z,74.86
2018-03-22T10:59:13.845Z,74.88
2018-03-22T11:00:22.904Z,74.89
2018-03-22T11:01:31.757Z,75.00
2018-03-22T11:02:40.750Z,75.04
2018-03-22T11:03:49.649Z,75.09
2018-03-22T11:04:52.977Z,75.12
2018-03-22T11:05:56.521Z,75.13
2018-03-22T11:06:59.840Z,75.14
2018-03-22T11:08:03.152Z,75.15
2018-03-22T11:09:06.684Z,75.16
2018-03-22T11:10:10.842Z,75.17
2018-03-22T11:11:14.176Z,75.18
2018-03-22T11:12:17.562Z,75.18
2018-03-22T11:13:20.917Z,75.23
2018-03-22T11:14:24.336Z,75.18
2018-03-22T11:15:27.676Z,75.19
2018-03-22T11:16:31.056Z,75.19
2018-03-22T11:17:34.523Z,75.18
2018-03-22T11:18:37.887Z,75.17
2018-03-22T11:19:42.487Z,75.18
2018-03-22T11:20:45.840Z,75.20
2018-03-22T11:21:49.168Z,75.17
2018-03-22T11:22:52.495Z,75.15
2018-03-22T11:23:55.900Z,75.16
2018-03-22T11:24:59.295Z,75.16
2018-03-22T11:26:02.739Z,75.15
2018-03-22T11:27:06.709Z,75.14
2018-03-22T11:28:10.024Z,75.13
2018-03-22T11:29:13.362Z,75.12
2018-03-22T11:30:16.731Z,75.09
2018-03-22T11:31:20.209Z,75.09
2018-03-22T11:32:23.588Z,75.08
2018-03-22T11:33:26.966Z,75.11
2018-03-22T11:34:30.289Z,75.03
2018-03-22T11:35:33.655Z,75.05
2018-03-22T11:36:37.005Z,75.05
2018-03-22T11:37:40.372Z,75.07
2018-03-22T11:38:43.779Z,75.10
2018-03-22T11:39:47.188Z,75.14
2018-03-22T11:40:51.006Z,75.15
2018-03-22T11:41:54.321Z,75.15
2018-03-22T11:42:58.067Z,75.18
2018-03-22T11:44:01.507Z,75.25
2018-03-22T11:45:06.289Z,75.27
2018-03-22T11:46:09.671Z,75.30
2018-03-22T11:47:13.101Z,75.31
2018-03-22T11:48:16.655Z,75.32
2018-03-22T11:49:20.038Z,75.37
2018-03-22T11:50:23.368Z,75.37
2018-03-22T11:51:26.769Z,75.37
2018-03-22T11:52:30.097Z,75.39
2018-03-22T11:53:33.477Z,75.37
2018-03-22T11:54:37.270Z,75.34
2018-03-22T11:55:40.660Z,75.33
2018-03-22T11:56:44.050Z,75.34
2018-03-22T11:57:47.720Z,75.40
2018-03-22T11:58:51.091Z,75.44
2018-03-22T11:59:54.556Z,75.47
2018-03-22T12:00:58.025Z,75.53
2018-03-22T12:02:01.571Z,75.58
2018-03-22T12:03:04.863Z,75.61
2018-03-22T12:04:08.461Z,75.64
2018-03-22T12:05:12.581Z,75.68
2018-03-22T12:06:15.977Z,75.69
2018-03-22T12:07:19.552Z,75.67
2018-03-22T12:08:23.598Z,75.68
2018-03-22T12:09:26.994Z,75.69
2018-03-22T12:10:30.375Z,75.68
2018-03-22T12:11:33.700Z,75.70
2018-03-22T12:12:37.581Z,75.71
2018-03-22T12:13:41.210Z,75.75
2018-03-22T12:14:45.592Z,75.77
2018-03-22T12:15:49.893Z,75.77
2018-03-22T12:16:53.204Z,75.77
2018-03-22T12:17:56.607Z,75.77
2018-03-22T12:19:00.038Z,75.79
2018-03-22T12:20:03.694Z,75.78
2018-03-22T12:22:14.623Z,75.83
2018-03-22T12:23:18.201Z,75.79
2018-03-22T12:24:21.890Z,75.77
2018-03-22T12:25:26.995Z,75.78
2018-03-22T12:26:30.605Z,75.83
2018-03-22T12:27:34.037Z,75.86
2018-03-22T12:28:37.494Z,75.86
2018-03-22T12:30:51.850Z,75.87
2018-03-22T12:31:55.278Z,75.87
2018-03-22T12:32:58.729Z,75.88
2018-03-22T12:34:03.321Z,75.85
2018-03-22T12:35:06.842Z,75.88
2018-03-22T12:36:10.356Z,75.90
2018-03-22T12:37:13.883Z,75.92
2018-03-22T12:38:18.490Z,75.95
2018-03-22T12:39:21.966Z,76.01
2018-03-22T12:40:26.350Z,76.01
2018-03-22T12:41:30.321Z,76.00
2018-03-22T12:42:33.833Z,76.00
2018-03-22T12:43:37.342Z,75.99
2018-03-22T12:44:41.188Z,76.01
2018-03-22T12:45:46.022Z,76.01
2018-03-22T12:46:50.125Z,76.00
2018-03-22T12:47:53.512Z,75.95
2018-03-22T12:48:57.118Z,75.93
2018-03-22T12:50:01.329Z,75.92
2018-03-22T12:51:04.779Z,75.94
2018-03-22T12:52:08.282Z,75.90
2018-03-22T12:53:11.664Z,75.89
2018-03-22T12:54:17.406Z,75.86
2018-03-22T12:55:20.972Z,75.87
2018-03-22T12:56:24.447Z,75.89
2018-03-22T12:57:27.946Z,75.93
2018-03-22T12:58:32.479Z,75.94
2018-03-22T12:59:36.626Z,75.96
2018-03-22T13:00:40.824Z,75.98
2018-03-22T13:01:44.228Z,75.95
2018-03-22T13:02:47.644Z,75.90
2018-03-22T13:03:51.027Z,75.89
2018-03-22T13:04:54.450Z,75.92
2018-03-22T13:05:57.895Z,75.89
2018-03-22T13:07:02.720Z,75.88
2018-03-22T13:08:06.228Z,75.88
2018-03-22T13:09:09.887Z,75.81
2018-03-22T13:10:13.320Z,75.78
2018-03-22T13:11:16.701Z,75.77
2018-03-22T13:12:20.885Z,75.78
2018-03-22T13:13:25.480Z,75.78
2018-03-22T13:14:29.024Z,75.75
2018-03-22T13:15:32.366Z,75.67
2018-03-22T13:16:36.586Z,75.60
2018-03-22T13:17:39.977Z,75.55
2018-03-22T13:18:43.704Z,75.39
2018-03-22T13:19:47.020Z,75.38
2018-03-22T13:20:50.752Z,75.34
2018-03-22T13:21:54.212Z,75.28
2018-03-22T13:22:57.665Z,75.26
2018-03-22T13:24:01.035Z,75.17
2018-03-22T13:25:04.876Z,75.01
2018-03-22T13:26:08.362Z,74.82
2018-03-22T13:27:12.467Z,74.74
2018-03-22T13:28:16.277Z,74.71
2018-03-22T13:29:19.847Z,74.63
2018-03-22T13:30:23.241Z,74.52
2018-03-22T13:31:26.593Z,74.44
2018-03-22T13:32:30.018Z,74.31
2018-03-22T13:33:33.402Z,74.30
2018-03-22T13:34:36.721Z,74.33
2018-03-22T13:35:40.196Z,74.35
2018-03-22T13:36:43.523Z,74.35
2018-03-22T13:37:47.060Z,74.24
2018-03-22T13:38:50.444Z,74.18
2018-03-22T13:39:53.843Z,74.13